Time;durP1;ratioP1;P1;durP2;ratioP2;P2;SDS_P1;SDS_P2;PMS_P1;PMS_P2;Temp;Humidity;BMP_temperature;BMP_pressure;BME280_temperature;BME280_humidity;BME280_pressure;Samples;Min_cycle;Max_cycle;Signal;HPM_P1;HPM_P2
2023/05/31 00:01:06;;;;;;;9.00;4.77;;;;;;;14.08;75.81;94076.41;5049398;28;20036;-57
2023/05/31 00:03:33;;;;;;;8.88;4.88;;;;;;;14.05;77.06;94073.78;5048479;28;20098;-59
2023/05/31 00:06:00;;;;;;;9.02;4.65;;;;;;;14.04;76.38;94074.97;5048993;28;20045;-59
2023/05/31 00:08:27;;;;;;;9.38;4.63;;;;;;;13.99;77.46;94073.53;5048591;28;20044;-58
2023/05/31 00:10:53;;;;;;;8.77;5.05;;;;;;;13.97;77.42;94070.41;5048809;28;20587;-60
2023/05/31 00:13:20;;;;;;;9.47;4.87;;;;;;;13.95;78.16;94075.59;5035377;28;20040;-57
2023/05/31 00:15:47;;;;;;;7.30;4.80;;;;;;;13.93;78.27;94078.78;5076462;28;20036;-60
2023/05/31 00:18:13;;;;;;;8.25;4.93;;;;;;;13.96;78.76;94077.94;5062595;28;20044;-63
2023/05/31 00:20:40;;;;;;;9.43;4.82;;;;;;;13.93;78.87;94081.53;5059629;28;20036;-59
2023/05/31 00:23:07;;;;;;;8.80;4.97;;;;;;;13.86;79.50;94078.94;5050549;28;20048;-58
2023/05/31 00:25:34;;;;;;;15.97;8.97;;;;;;;13.86;79.86;94078.19;5039878;28;20056;-61
2023/05/31 00:28:00;;;;;;;8.50;4.80;;;;;;;13.84;80.64;94086.13;5067050;28;20059;-58
2023/05/31 00:30:27;;;;;;;9.32;5.07;;;;;;;13.84;80.28;94086.88;5051009;28;20067;-58
2023/05/31 00:32:54;;;;;;;9.68;4.85;;;;;;;13.81;80.97;94087.00;5031277;28;20052;-58
2023/05/31 00:35:21;;;;;;;9.13;4.70;;;;;;;13.72;81.16;94082.06;5061258;28;20041;-59
2023/05/31 00:37:48;;;;;;;8.23;4.80;;;;;;;13.57;82.40;94084.41;5030876;28;20041;-58
2023/05/31 00:40:14;;;;;;;9.68;4.82;;;;;;;13.62;83.06;94083.09;5062109;28;20051;-58
2023/05/31 00:42:41;;;;;;;8.38;4.70;;;;;;;13.57;82.35;94085.16;5047728;28;20039;-58
2023/05/31 00:45:08;;;;;;;8.52;4.70;;;;;;;13.57;81.98;94084.41;5048722;28;20413;-58
2023/05/31 00:47:35;;;;;;;7.53;4.65;;;;;;;13.52;82.51;94080.19;5049085;28;20044;-59
2023/05/31 00:50:02;;;;;;;16.80;9.13;;;;;;;13.45;82.05;94083.09;5053606;28;20423;-63
2023/05/31 00:52:31;;;;;;;10.98;6.68;;;;;;;13.44;82.06;94081.56;5056275;28;20383;-58
2023/05/31 00:54:58;;;;;;;7.82;4.70;;;;;;;13.41;81.38;94079.66;5030628;28;20045;-59
2023/05/31 00:57:25;;;;;;;9.60;5.20;;;;;;;13.37;80.77;94074.22;5048055;28;20041;-58
2023/05/31 00:59:52;;;;;;;8.20;4.30;;;;;;;13.34;79.95;94071.53;5048509;28;20029;-58
2023/05/31 01:02:19;;;;;;;7.27;4.47;;;;;;;13.32;79.50;94069.25;5030479;28;21566;-59
2023/05/31 01:04:46;;;;;;;7.80;4.50;;;;;;;13.34;79.67;94066.03;5048356;28;20063;-59
2023/05/31 01:07:13;;;;;;;8.73;4.45;;;;;;;13.26;79.78;94067.38;5049796;28;20040;-59
2023/05/31 01:09:42;;;;;;;6.93;4.40;;;;;;;13.16;79.80;94071.94;5067870;28;20038;-58
2023/05/31 01:12:18;;;;;;;8.23;4.30;;;;;;;13.15;79.24;94062.13;5052511;28;20389;-63
2023/05/31 01:15:07;;;;;;;8.70;4.33;;;;;;;13.17;78.43;94059.72;5066830;28;20744;-61
2023/05/31 01:17:44;;;;;;;11.20;5.80;;;;;;;13.20;78.36;94056.09;5049417;28;20551;-58
2023/05/31 01:20:15;;;;;;;8.95;4.53;;;;;;;13.19;78.30;94060.81;5048313;28;20033;-58
2023/05/31 01:23:04;;;;;;;7.38;4.50;;;;;;;13.14;77.20;94068.84;5061124;28;20040;-59
2023/05/31 01:25:54;;;;;;;9.02;4.43;;;;;;;13.20;78.14;94058.88;5047466;28;20037;-59
2023/05/31 01:28:22;;;;;;;7.37;4.40;;;;;;;13.12;77.80;94054.69;5058433;28;20441;-56
2023/05/31 01:30:50;;;;;;;6.57;4.22;;;;;;;13.12;77.46;94060.19;5050231;28;20039;-58
2023/05/31 01:33:17;;;;;;;9.05;4.13;;;;;;;13.07;77.74;94060.72;5048313;28;20041;-58
2023/05/31 01:35:44;;;;;;;6.78;3.90;;;;;;;13.06;78.06;94061.91;5060339;28;20832;-57
2023/05/31 01:38:11;;;;;;;6.70;4.13;;;;;;;13.05;77.29;94066.66;5054907;28;20086;-58
2023/05/31 01:40:39;;;;;;;8.80;4.47;;;;;;;13.07;77.16;94061.50;5062533;28;20067;-63
2023/05/31 01:43:07;;;;;;;8.50;3.97;;;;;;;13.04;77.37;94056.06;5053332;28;20044;-58
2023/05/31 01:45:35;;;;;;;7.75;4.40;;;;;;;13.07;76.65;94052.47;5047472;28;20060;-58
2023/05/31 01:48:05;;;;;;;7.00;3.90;;;;;;;12.95;77.50;94056.66;5050659;28;20745;-59
2023/05/31 01:50:35;;;;;;;7.60;4.30;;;;;;;12.97;77.35;94060.53;5051177;28;20411;-59
2023/05/31 01:53:02;;;;;;;7.97;3.93;;;;;;;12.94;77.88;94053.13;5046899;28;20317;-61
2023/05/31 01:55:29;;;;;;;8.43;4.20;;;;;;;12.87;78.08;94069.03;5050760;28;20068;-59
2023/05/31 01:57:57;;;;;;;8.65;4.30;;;;;;;12.86;77.84;94060.00;5034087;28;20039;-59
2023/05/31 02:00:24;;;;;;;9.00;4.30;;;;;;;12.86;78.08;94060.00;5057753;28;20037;-59
2023/05/31 02:02:52;;;;;;;9.23;4.07;;;;;;;12.77;78.66;94049.56;5059238;28;20037;-59
2023/05/31 02:05:19;;;;;;;10.60;4.17;;;;;;;12.76;78.92;94050.00;5052006;28;20045;-55
2023/05/31 02:07:48;;;;;;;7.55;4.25;;;;;;;12.78;78.45;94053.88;5040914;28;20040;-58
2023/05/31 02:10:15;;;;;;;9.75;4.45;;;;;;;12.77;78.55;94055.06;5069236;28;20153;-58
2023/05/31 02:12:42;;;;;;;8.77;4.15;;;;;;;12.78;79.01;94053.88;5058917;28;20041;-58
2023/05/31 02:15:12;;;;;;;9.05;4.57;;;;;;;12.73;79.53;94057.13;5043447;28;20048;-58
2023/05/31 02:17:42;;;;;;;7.20;3.90;;;;;;;12.71;79.64;94053.25;5050485;28;20430;-58
2023/05/31 02:20:12;;;;;;;8.13;4.03;;;;;;;12.75;79.06;94054.72;5062720;28;20049;-58
2023/05/31 02:22:40;;;;;;;9.02;4.40;;;;;;;12.62;79.99;94051.06;5051157;28;20044;-58
2023/05/31 02:25:11;;;;;;;8.30;4.25;;;;;;;12.67;79.34;94066.31;5046051;28;20052;-61
2023/05/31 02:27:39;;;;;;;7.30;4.30;;;;;;;12.66;78.62;94064.78;5051765;28;20523;-61
2023/05/31 02:30:07;;;;;;;8.13;4.40;;;;;;;12.70;79.78;94071.75;5051019;28;20059;-60
2023/05/31 02:32:35;;;;;;;8.23;4.05;;;;;;;12.66;78.80;94067.53;5036230;28;20393;-58
2023/05/31 02:35:07;;;;;;;9.20;4.03;;;;;;;12.59;79.22;94049.16;5059798;28;20099;-60
2023/05/31 02:37:36;;;;;;;6.80;4.18;;;;;;;12.57;79.80;94054.31;5055109;28;20045;-60
2023/05/31 02:40:10;;;;;;;6.85;4.03;;;;;;;12.52;80.10;94057.59;5066224;28;20032;-61
2023/05/31 02:42:39;;;;;;;8.10;4.40;;;;;;;12.51;79.76;94058.75;5059248;28;20094;-58
2023/05/31 02:45:10;;;;;;;10.20;4.35;;;;;;;12.53;79.65;94056.38;5050210;28;20045;-60
2023/05/31 02:47:38;;;;;;;7.18;4.30;;;;;;;12.54;79.01;94057.94;5058176;28;20048;-58
2023/05/31 02:50:09;;;;;;;8.30;4.13;;;;;;;12.59;78.78;94046.41;5050628;28;20045;-58
2023/05/31 02:52:37;;;;;;;7.88;3.92;;;;;;;12.60;78.07;94056.22;5050104;28;20101;-58
2023/05/31 02:55:05;;;;;;;8.73;4.20;;;;;;;12.53;78.72;94054.38;5050274;28;20041;-61
2023/05/31 02:57:31;;;;;;;7.72;3.90;;;;;;;12.55;78.40;94046.47;5049613;28;20045;-58
2023/05/31 03:00:01;;;;;;;8.75;3.78;;;;;;;12.52;77.52;94054.81;5052152;28;20040;-58
2023/05/31 03:02:33;;;;;;;7.18;3.70;;;;;;;12.52;77.40;94054.81;5059939;28;20049;-61
2023/05/31 03:05:02;;;;;;;6.38;3.80;;;;;;;12.54;77.90;94055.94;5063560;28;20051;-58
2023/05/31 03:07:29;;;;;;;7.33;3.70;;;;;;;12.55;77.01;94048.47;5049394;28;20040;-58
2023/05/31 03:09:56;;;;;;;8.98;4.07;;;;;;;12.55;77.66;94045.69;5050234;28;20033;-58
2023/05/31 03:12:22;;;;;;;7.95;4.00;;;;;;;12.51;77.07;94045.78;5049386;28;20079;-59
2023/05/31 03:14:49;;;;;;;8.30;3.95;;;;;;;12.51;76.78;94040.28;5059345;28;20043;-59
2023/05/31 03:17:16;;;;;;;8.38;3.80;;;;;;;12.48;76.34;94040.38;5049577;28;20054;-59
2023/05/31 03:19:43;;;;;;;7.77;3.73;;;;;;;12.51;76.29;94039.50;5057959;28;20067;-62
2023/05/31 03:22:10;;;;;;;16.65;8.77;;;;;;;12.48;75.83;94034.84;5036676;28;20047;-58
2023/05/31 03:24:37;;;;;;;8.40;3.95;;;;;;;12.49;75.00;94028.13;5031987;28;20057;-58
2023/05/31 03:27:05;;;;;;;7.38;3.80;;;;;;;12.46;75.47;94031.75;5063646;28;20036;-58
2023/05/31 03:29:33;;;;;;;8.85;3.67;;;;;;;12.43;75.04;94035.34;5051860;28;20495;-59
2023/05/31 03:32:00;;;;;;;8.50;3.70;;;;;;;12.49;75.16;94037.16;5054693;28;20051;-59
2023/05/31 03:34:27;;;;;;;9.32;3.50;;;;;;;12.47;74.35;94044.31;5034074;28;20427;-62
2023/05/31 03:36:54;;;;;;;7.22;3.50;;;;;;;12.39;74.32;94049.97;5056208;28;20051;-59
2023/05/31 03:39:20;;;;;;;6.72;3.30;;;;;;;12.51;73.96;94048.53;5037846;28;20045;-58
2023/05/31 03:41:47;;;;;;;6.85;3.35;;;;;;;12.47;73.51;94042.31;5062145;28;20045;-59
2023/05/31 03:44:14;;;;;;;7.70;3.50;;;;;;;12.38;73.19;94051.16;5049135;28;20109;-61
2023/05/31 03:46:41;;;;;;;5.78;3.50;;;;;;;12.43;73.08;94049.88;5032262;28;20052;-58
2023/05/31 03:49:07;;;;;;;9.45;3.75;;;;;;;12.48;72.59;94041.13;5049211;28;20041;-60
2023/05/31 03:51:34;;;;;;;7.53;3.47;;;;;;;12.51;72.18;94053.25;5050809;28;20389;-57
2023/05/31 03:54:01;;;;;;;7.38;3.63;;;;;;;12.43;72.50;94057.38;5042294;28;20039;-58
2023/05/31 03:56:28;;;;;;;6.33;3.30;;;;;;;12.47;72.07;94050.56;5044219;28;20067;-58
2023/05/31 03:58:55;;;;;;;7.13;3.45;;;;;;;12.47;71.61;94055.31;5049239;28;20072;-58
2023/05/31 04:01:22;;;;;;;6.55;3.58;;;;;;;12.49;71.18;94053.69;5049027;28;20043;-61
2023/05/31 04:03:50;;;;;;;7.55;3.50;;;;;;;12.46;70.74;94053.78;5049228;28;20109;-59
2023/05/31 04:06:17;;;;;;;9.68;3.65;;;;;;;12.47;71.06;94052.56;5049521;28;20119;-60
2023/05/31 04:08:44;;;;;;;8.60;3.30;;;;;;;12.50;70.13;94044.22;5062555;28;20894;-58
2023/05/31 04:11:10;;;;;;;6.68;3.08;;;;;;;12.53;69.68;94043.38;5048796;28;20047;-58
2023/05/31 04:13:37;;;;;;;6.45;3.70;;;;;;;12.53;69.35;94043.38;5057518;28;20040;-59
2023/05/31 04:16:04;;;;;;;7.55;3.42;;;;;;;12.56;68.88;94048.03;5049296;28;20045;-58
2023/05/31 04:18:31;;;;;;;6.72;3.45;;;;;;;12.66;68.41;94053.75;5048470;28;20040;-60
2023/05/31 04:20:57;;;;;;;8.97;3.20;;;;;;;12.70;68.37;94060.72;5062002;28;20045;-57
2023/05/31 04:23:24;;;;;;;9.77;3.40;;;;;;;12.74;67.99;94063.41;5048807;28;20047;-58
2023/05/31 04:25:51;;;;;;;8.52;3.33;;;;;;;12.79;68.28;94055.41;5052212;28;20044;-60
2023/05/31 04:28:19;;;;;;;6.47;3.30;;;;;;;12.87;67.69;94069.81;5057993;28;20033;-59
2023/05/31 04:30:46;;;;;;;9.23;3.40;;;;;;;12.80;67.75;94067.22;5029675;28;20621;-63
2023/05/31 04:33:13;;;;;;;7.20;3.40;;;;;;;12.92;67.25;94065.78;5057973;28;20047;-59
2023/05/31 04:35:40;;;;;;;8.50;3.22;;;;;;;12.99;66.94;94073.88;5065452;28;20378;-58
2023/05/31 04:38:08;;;;;;;7.00;3.20;;;;;;;12.90;67.14;94077.22;5049378;28;20377;-58
2023/05/31 04:40:34;;;;;;;7.13;3.53;;;;;;;13.05;66.51;94077.69;5049501;28;20046;-58
2023/05/31 04:43:01;;;;;;;7.82;3.35;;;;;;;13.14;66.02;94083.41;5054083;28;20043;-61
2023/05/31 04:45:28;;;;;;;6.77;3.70;;;;;;;13.06;65.25;94076.50;5060518;28;20075;-58
2023/05/31 04:47:55;;;;;;;8.55;3.20;;;;;;;13.25;65.44;94072.13;5031367;28;20045;-60
2023/05/31 04:50:22;;;;;;;6.90;3.33;;;;;;;13.41;64.27;94076.91;5060279;28;20071;-58
2023/05/31 04:52:51;;;;;;;6.30;3.22;;;;;;;13.38;65.20;94077.75;5047911;28;20474;-57
2023/05/31 04:55:18;;;;;;;6.05;3.38;;;;;;;13.27;65.18;94071.69;5030303;28;20033;-57
2023/05/31 04:57:44;;;;;;;6.73;3.30;;;;;;;13.39;65.37;94079.31;5046911;28;21501;-59
2023/05/31 05:00:15;;;;;;;6.03;3.28;;;;;;;13.47;64.90;94088.97;5047595;28;20037;-61
2023/05/31 05:02:43;;;;;;;7.13;3.38;;;;;;;13.41;64.40;94087.16;5059583;28;20039;-58
2023/05/31 05:05:10;;;;;;;7.05;3.30;;;;;;;13.53;63.10;94087.25;5048117;28;20048;-57
2023/05/31 05:07:37;;;;;;;7.35;4.22;;;;;;;13.41;64.08;94087.16;5046699;28;20067;-61
2023/05/31 05:10:04;;;;;;;8.33;3.30;;;;;;;13.54;63.68;94091.56;5055384;28;20056;-58
2023/05/31 05:12:31;;;;;;;8.65;3.60;;;;;;;13.39;63.76;94102.13;5061220;28;20041;-59
2023/05/31 05:14:57;;;;;;;7.38;3.50;;;;;;;13.54;63.09;94088.81;5053275;28;20053;-59
2023/05/31 05:17:24;;;;;;;6.32;3.20;;;;;;;13.44;64.16;94089.84;5047195;28;20029;-58
2023/05/31 05:19:51;;;;;;;8.55;3.90;;;;;;;13.81;63.38;94096.03;5047700;28;20041;-57
2023/05/31 05:22:18;;;;;;;6.47;3.60;;;;;;;14.49;60.84;94099.03;5061833;28;20098;-63
2023/05/31 05:24:45;;;;;;;7.72;4.05;;;;;;;17.62;53.63;94079.16;5050485;28;20686;-59
2023/05/31 05:27:12;;;;;;;6.78;3.50;;;;;;;19.85;45.94;94084.16;5069519;28;20497;-58
2023/05/31 05:29:38;;;;;;;7.07;3.53;;;;;;;20.80;42.56;94081.03;5060423;28;20071;-61
2023/05/31 05:32:06;;;;;;;6.13;3.58;;;;;;;22.06;39.63;94075.00;5051200;28;20033;-58
2023/05/31 05:34:33;;;;;;;7.07;3.23;;;;;;;20.60;40.57;94071.28;5050952;28;20158;-58
2023/05/31 05:37:00;;;;;;;7.00;3.60;;;;;;;21.51;39.34;94074.47;5035363;28;20064;-62
2023/05/31 05:39:27;;;;;;;6.18;3.22;;;;;;;20.91;39.48;94068.06;5070004;28;20055;-58
2023/05/31 05:41:53;;;;;;;9.25;3.67;;;;;;;20.90;39.85;94074.13;5055316;28;20060;-58
2023/05/31 05:44:20;;;;;;;7.28;3.60;;;;;;;22.71;37.35;94077.63;5070448;28;20420;-59
2023/05/31 05:46:47;;;;;;;6.17;3.70;;;;;;;24.97;33.46;94073.69;5067134;28;20430;-58
2023/05/31 05:49:14;;;;;;;5.88;3.22;;;;;;;24.67;33.51;94060.84;5062726;28;20052;-58
2023/05/31 05:51:45;;;;;;;6.45;3.30;;;;;;;24.58;32.79;94066.66;5051768;28;20458;-58
2023/05/31 05:54:11;;;;;;;7.40;3.40;;;;;;;25.19;31.47;94065.31;5040963;28;20455;-58
2023/05/31 05:56:38;;;;;;;6.85;3.50;;;;;;;23.89;32.86;94075.97;5063512;28;24658;-63
2023/05/31 05:59:05;;;;;;;6.17;3.20;;;;;;;26.07;30.73;94064.34;5032860;28;20037;-60
2023/05/31 06:01:32;;;;;;;8.15;3.45;;;;;;;23.24;32.51;94086.84;5035335;28;20033;-59
2023/05/31 06:04:01;;;;;;;5.90;3.40;;;;;;;23.23;33.78;94074.88;5060444;28;20037;-64
2023/05/31 06:06:28;;;;;;;5.30;3.00;;;;;;;25.40;31.17;94065.88;5063408;28;20041;-62
2023/05/31 06:08:55;;;;;;;7.53;3.42;;;;;;;26.44;29.96;94069.63;5043254;28;20043;-59
2023/05/31 06:11:22;;;;;;;7.03;3.10;;;;;;;27.50;28.31;94061.19;5069858;28;20036;-59
2023/05/31 06:13:49;;;;;;;5.55;3.42;;;;;;;26.67;28.10;94069.56;5055245;28;20032;-60
2023/05/31 06:16:16;;;;;;;5.40;3.25;;;;;;;27.36;27.67;94060.25;5071947;28;20071;-65
2023/05/31 06:18:43;;;;;;;8.38;3.80;;;;;;;27.26;27.96;94061.84;5068248;28;20036;-60
2023/05/31 06:21:09;;;;;;;8.32;4.05;;;;;;;24.89;30.26;94073.41;5059045;28;20049;-60
2023/05/31 06:23:36;;;;;;;7.17;3.60;;;;;;;24.84;31.16;94062.94;5060379;28;20044;-59
2023/05/31 06:26:03;;;;;;;6.75;3.60;;;;;;;26.04;29.84;94065.38;5052140;28;20068;-60
2023/05/31 06:28:30;;;;;;;7.63;3.47;;;;;;;26.11;29.40;94065.59;5050206;28;20041;-60
2023/05/31 06:31:03;;;;;;;5.50;3.35;;;;;;;27.95;26.74;94065.69;5050152;28;20049;-61
2023/05/31 06:33:30;;;;;;;5.85;3.20;;;;;;;27.26;28.00;94062.63;5065115;28;20050;-60
2023/05/31 06:35:56;;;;;;;8.27;3.67;;;;;;;28.45;26.59;94073.69;5062977;28;20041;-58
2023/05/31 06:38:24;;;;;;;6.03;3.33;;;;;;;29.85;24.61;94063.88;5043675;28;20074;-59
2023/05/31 06:40:52;;;;;;;6.93;3.22;;;;;;;29.57;24.89;94072.78;5051213;28;20036;-59
2023/05/31 06:43:19;;;;;;;9.98;3.63;;;;;;;27.44;26.58;94072.47;5031275;28;20037;-61
2023/05/31 06:45:47;;;;;;;11.48;3.63;;;;;;;27.33;26.88;94064.13;5050491;28;20379;-58
2023/05/31 06:48:13;;;;;;;6.10;3.33;;;;;;;29.23;25.73;94068.38;5062719;28;20059;-63
2023/05/31 06:50:40;;;;;;;5.75;3.10;;;;;;;30.04;24.90;94060.97;5049324;28;20059;-58
2023/05/31 06:53:09;;;;;;;9.32;3.47;;;;;;;30.48;24.38;94067.16;5057691;28;20349;-58
2023/05/31 06:55:36;;;;;;;6.18;3.42;;;;;;;31.38;22.77;94059.66;5056201;28;20342;-58
2023/05/31 06:58:05;;;;;;;8.85;3.50;;;;;;;30.24;23.90;94059.59;5049448;28;20439;-58
2023/05/31 07:00:32;;;;;;;6.27;3.57;;;;;;;25.49;29.00;94074.06;5049271;28;20087;-58
2023/05/31 07:02:59;;;;;;;7.05;3.60;;;;;;;27.62;27.46;94065.44;5049227;28;20052;-58
2023/05/31 07:05:27;;;;;;;6.90;3.40;;;;;;;29.35;25.39;94059.75;5031190;28;20037;-58
2023/05/31 07:07:54;;;;;;;7.20;3.75;;;;;;;26.93;27.64;94072.00;5035678;28;20048;-59
2023/05/31 07:10:21;;;;;;;6.07;3.60;;;;;;;28.18;26.05;94067.03;5040092;28;20049;-63
2023/05/31 07:12:48;;;;;;;6.60;3.40;;;;;;;25.96;28.77;94064.34;5051276;28;20044;-58
2023/05/31 07:15:15;;;;;;;8.80;3.45;;;;;;;29.33;25.40;94053.88;5068864;28;20033;-59
2023/05/31 07:17:41;;;;;;;5.97;3.30;;;;;;;29.75;25.18;94045.78;5057316;28;20048;-60
2023/05/31 07:20:11;;;;;;;6.82;3.42;;;;;;;27.28;27.57;94051.59;5048457;28;20040;-58
2023/05/31 07:22:38;;;;;;;6.30;3.70;;;;;;;25.76;28.99;94051.34;5048138;28;20064;-61
2023/05/31 07:25:06;;;;;;;6.07;3.50;;;;;;;28.55;26.68;94051.50;5031150;28;20036;-59
2023/05/31 07:27:32;;;;;;;6.43;3.30;;;;;;;28.39;26.77;94052.44;5048895;28;20496;-59
2023/05/31 07:29:59;;;;;;;5.82;3.35;;;;;;;28.81;25.89;94045.28;5049388;28;20044;-64
2023/05/31 07:32:26;;;;;;;5.53;3.60;;;;;;;28.66;25.86;94053.44;5049178;28;20041;-59
2023/05/31 07:34:53;;;;;;;7.95;3.40;;;;;;;27.04;27.71;94043.00;5049806;28;20123;-59
2023/05/31 07:37:30;;;;;;;6.17;3.90;;;;;;;25.23;29.80;94040.59;5054888;28;20048;-59
2023/05/31 07:39:57;;;;;;;5.70;3.50;;;;;;;26.77;28.13;94041.88;5041767;28;20166;-60
2023/05/31 07:42:24;;;;;;;6.15;3.60;;;;;;;30.01;25.17;94043.03;5048470;28;20044;-59
2023/05/31 07:44:51;;;;;;;6.55;3.72;;;;;;;26.98;27.46;94048.66;5058103;28;20044;-64
2023/05/31 07:47:19;;;;;;;7.82;3.70;;;;;;;28.76;25.83;94048.97;5067714;28;20107;-63
2023/05/31 07:49:46;;;;;;;9.00;3.33;;;;;;;28.15;25.59;94047.56;5048198;28;20755;-61
2023/05/31 07:52:14;;;;;;;7.30;3.70;;;;;;;26.48;28.29;94063.72;5049534;28;20047;-59
2023/05/31 07:54:42;;;;;;;5.90;3.50;;;;;;;27.17;28.39;94048.06;5048402;28;20040;-59
2023/05/31 07:57:08;;;;;;;7.80;3.60;;;;;;;28.36;26.12;94047.88;5061572;28;20425;-59
2023/05/31 07:59:35;;;;;;;7.32;3.47;;;;;;;28.75;26.02;94038.19;5048490;28;20542;-62
2023/05/31 08:02:03;;;;;;;7.70;3.43;;;;;;;29.64;25.02;94030.50;5062252;28;20070;-59
2023/05/31 08:04:31;;;;;;;6.20;3.50;;;;;;;28.60;25.86;94039.41;5032459;28;20500;-59
2023/05/31 08:06:58;;;;;;;6.57;3.70;;;;;;;24.37;31.63;94040.03;5049450;28;20377;-59
2023/05/31 08:09:26;;;;;;;7.55;3.60;;;;;;;28.88;26.45;94038.28;5034808;28;20091;-59
2023/05/31 08:11:52;;;;;;;6.60;3.85;;;;;;;29.31;25.14;94033.84;5058131;28;20037;-59
2023/05/31 08:14:19;;;;;;;6.90;3.87;;;;;;;27.68;27.03;94034.38;5060151;28;20041;-57
2023/05/31 08:16:49;;;;;;;7.78;3.80;;;;;;;28.83;25.65;94050.41;5054642;28;20046;-62
2023/05/31 08:19:16;;;;;;;5.78;3.42;;;;;;;31.20;23.18;94030.16;5054250;28;20477;-58
2023/05/31 08:21:45;;;;;;;6.40;3.22;;;;;;;29.75;24.92;94034.47;5047953;28;20041;-59
2023/05/31 08:24:12;;;;;;;6.57;3.58;;;;;;;27.81;27.90;94025.28;5047907;28;20179;-60
2023/05/31 08:26:39;;;;;;;5.60;3.50;;;;;;;29.50;25.13;94033.81;5047897;28;20064;-62
2023/05/31 08:29:07;;;;;;;6.20;3.40;;;;;;;27.49;26.82;94060.41;5048153;28;20047;-59
2023/05/31 08:31:34;;;;;;;7.03;3.90;;;;;;;28.75;25.39;94033.28;5060858;28;20488;-59
2023/05/31 08:34:01;;;;;;;8.32;3.65;;;;;;;27.91;25.74;94039.84;5048266;28;20041;-61
2023/05/31 08:36:28;;;;;;;6.22;3.67;;;;;;;25.03;29.68;94046.38;5047866;28;20385;-59
2023/05/31 08:38:56;;;;;;;7.80;3.77;;;;;;;26.73;27.48;94027.31;5060495;28;20045;-58
2023/05/31 08:41:23;;;;;;;11.38;4.10;;;;;;;26.98;27.48;94023.31;5047113;28;20047;-59
2023/05/31 08:43:49;;;;;;;7.93;4.00;;;;;;;22.90;31.56;94047.31;5054285;28;20070;-59
2023/05/31 08:46:18;;;;;;;9.52;3.88;;;;;;;24.53;30.80;94025.34;5069487;28;20066;-65
2023/05/31 08:49:01;;;;;;;10.27;4.18;;;;;;;24.62;29.84;94029.97;5052295;28;20650;-60
2023/05/31 08:51:28;;;;;;;6.43;3.70;;;;;;;28.15;26.19;94025.78;5036441;28;20401;-59
2023/05/31 08:53:57;;;;;;;8.60;4.00;;;;;;;24.51;30.42;94025.84;5068115;28;20055;-60
2023/05/31 08:56:26;;;;;;;9.70;4.20;;;;;;;25.50;29.34;94029.88;5054381;28;20059;-59
2023/05/31 08:58:54;;;;;;;10.23;3.72;;;;;;;25.56;29.12;94027.81;5059106;28;20048;-60
2023/05/31 09:01:22;;;;;;;10.73;3.85;;;;;;;25.37;28.39;94005.06;5057161;28;20098;-58
2023/05/31 09:03:52;;;;;;;9.63;3.93;;;;;;;27.26;27.21;94023.16;5064697;28;20494;-62
2023/05/31 09:06:19;;;;;;;7.18;3.80;;;;;;;25.64;28.37;94042.13;5050990;28;20047;-60
2023/05/31 09:08:47;;;;;;;7.15;3.92;;;;;;;25.37;29.11;94035.97;5034386;28;20037;-59
2023/05/31 09:11:14;;;;;;;6.05;4.07;;;;;;;23.22;31.24;94044.56;5063434;28;20040;-58
2023/05/31 09:13:41;;;;;;;7.20;3.88;;;;;;;25.23;28.86;94037.00;5052524;28;20045;-58
2023/05/31 09:16:07;;;;;;;6.83;3.80;;;;;;;25.48;28.97;94050.03;5051651;28;20109;-63
2023/05/31 09:18:39;;;;;;;6.30;3.50;;;;;;;27.77;26.55;94053.00;5054777;28;20036;-60
2023/05/31 09:21:11;;;;;;;6.45;3.63;;;;;;;27.76;25.74;94037.41;5071792;28;20041;-59
2023/05/31 09:23:37;;;;;;;6.65;3.65;;;;;;;27.26;26.02;94051.34;5035160;28;20045;-59
2023/05/31 09:26:07;;;;;;;6.25;3.60;;;;;;;26.21;27.76;94054.84;5039396;28;20047;-59
2023/05/31 09:28:34;;;;;;;7.77;3.70;;;;;;;22.69;31.41;94069.72;5069203;28;20070;-61
2023/05/31 09:31:06;;;;;;;7.00;3.80;;;;;;;23.99;30.75;94051.31;5054147;28;20045;-60
2023/05/31 09:33:39;;;;;;;5.43;3.60;;;;;;;26.27;27.30;94054.84;5051429;28;20067;-62
2023/05/31 09:36:06;;;;;;;8.45;4.00;;;;;;;23.93;30.23;94061.72;5040062;28;20040;-60
2023/05/31 09:38:34;;;;;;;6.63;3.50;;;;;;;27.65;27.00;94030.56;5057726;28;20047;-59
2023/05/31 09:41:20;;;;;;;7.00;3.60;;;;;;;27.47;26.62;94048.91;5065401;28;20422;-60
2023/05/31 09:43:49;;;;;;;19.67;4.35;;;;;;;21.47;33.31;94073.09;5050846;28;20071;-65
2023/05/31 09:46:21;;;;;;;7.35;3.58;;;;;;;25.05;29.78;94047.44;5037028;28;20036;-59
2023/05/31 09:49:01;;;;;;;5.80;3.33;;;;;;;26.97;27.63;94029.50;5048056;28;20090;-61
2023/05/31 09:51:32;;;;;;;7.90;3.53;;;;;;;29.64;25.33;94021.25;5051198;28;20055;-59
2023/05/31 09:54:08;;;;;;;8.03;3.70;;;;;;;29.12;25.45;94022.56;5051885;28;20037;-60
2023/05/31 09:56:40;;;;;;;8.15;3.70;;;;;;;25.46;29.31;94030.13;5050788;28;20048;-59
2023/05/31 09:59:07;;;;;;;6.40;3.40;;;;;;;26.06;28.29;94027.03;5064623;28;20055;-59
2023/05/31 10:01:36;;;;;;;9.85;3.50;;;;;;;25.70;28.34;94040.84;5064756;28;20397;-60
2023/05/31 10:04:05;;;;;;;14.00;3.65;;;;;;;26.26;28.52;94019.56;5061903;28;20036;-64
2023/05/31 10:06:35;;;;;;;8.77;3.77;;;;;;;25.05;30.10;94027.00;5052775;28;20056;-60
2023/05/31 10:09:07;;;;;;;7.15;3.80;;;;;;;25.19;29.69;94028.78;5050631;28;20040;-62
2023/05/31 10:11:41;;;;;;;20.48;4.55;;;;;;;25.48;29.51;94018.38;5050404;28;20090;-59
2023/05/31 10:14:14;;;;;;;10.43;3.70;;;;;;;25.94;28.59;94033.16;5072966;28;20040;-62
2023/05/31 10:16:53;;;;;;;6.07;3.70;;;;;;;23.96;30.13;94055.09;5032818;28;20051;-58
2023/05/31 10:19:24;;;;;;;7.40;3.90;;;;;;;22.09;33.55;94035.69;5063825;28;20036;-58
2023/05/31 10:21:52;;;;;;;7.60;3.60;;;;;;;25.03;30.05;94024.72;5041441;28;20047;-60
2023/05/31 10:24:40;;;;;;;6.72;3.70;;;;;;;25.34;30.04;94027.84;5053318;28;20043;-59
2023/05/31 10:27:22;;;;;;;10.05;3.80;;;;;;;27.23;27.83;94027.03;5050427;28;20634;-61
2023/05/31 10:29:54;;;;;;;7.80;3.60;;;;;;;26.46;28.16;94027.66;5064667;28;20710;-59
2023/05/31 10:32:26;;;;;;;6.63;3.30;;;;;;;26.51;28.01;94024.03;5056376;28;20028;-61
2023/05/31 10:34:53;;;;;;;5.50;3.45;;;;;;;25.57;28.50;94020.91;5056955;28;20106;-59
2023/05/31 10:37:21;;;;;;;8.57;3.63;;;;;;;25.86;28.60;94028.06;5050014;28;20063;-60
2023/05/31 10:40:13;;;;;;;9.32;3.72;;;;;;;26.42;28.46;94032.00;5050721;28;20063;-59
2023/05/31 10:43:04;;;;;;;8.07;3.50;;;;;;;24.35;31.11;94031.34;5050068;28;20090;-58
2023/05/31 10:45:51;;;;;;;7.23;3.60;;;;;;;26.69;28.11;94028.34;5050314;28;20159;-59
2023/05/31 10:48:38;;;;;;;6.22;3.40;;;;;;;25.27;29.83;94015.03;5073982;28;20424;-59
2023/05/31 10:51:06;;;;;;;7.93;3.90;;;;;;;24.13;32.67;94027.94;5050934;28;20085;-59
2023/05/31 10:53:38;;;;;;;9.48;3.85;;;;;;;25.33;30.19;94003.81;5061773;28;20040;-58
2023/05/31 10:56:10;;;;;;;8.00;3.67;;;;;;;24.13;32.56;94019.53;5050216;28;20427;-60
2023/05/31 10:58:38;;;;;;;7.30;3.70;;;;;;;24.20;32.44;94017.50;5058206;28;20060;-58
2023/05/31 11:01:10;;;;;;;8.38;3.72;;;;;;;23.23;33.65;94006.94;5054898;28;20032;-59
2023/05/31 11:03:51;;;;;;;6.35;3.70;;;;;;;23.09;33.94;94022.59;5055310;28;20049;-61
2023/05/31 11:06:32;;;;;;;7.18;3.70;;;;;;;22.46;34.02;94015.56;5069161;28;20523;-58
2023/05/31 11:09:16;;;;;;;7.78;3.85;;;;;;;21.37;35.44;94011.00;5049210;28;20039;-58
2023/05/31 11:11:48;;;;;;;6.67;3.67;;;;;;;21.03;36.01;94018.06;5067041;28;21672;-59
2023/05/31 11:14:15;;;;;;;6.85;3.83;;;;;;;21.09;36.81;94028.06;5078378;28;20404;-57
2023/05/31 11:16:46;;;;;;;9.73;3.80;;;;;;;22.00;35.04;94021.06;5053091;28;20051;-57
2023/05/31 11:19:17;;;;;;;7.97;3.80;;;;;;;21.68;34.76;94012.50;5049932;28;20551;-59
2023/05/31 11:21:50;;;;;;;8.98;3.90;;;;;;;20.68;36.78;94027.84;5048653;28;20063;-57
2023/05/31 11:24:37;;;;;;;9.43;4.00;;;;;;;21.66;34.96;94021.34;5049762;28;20044;-57
2023/05/31 11:27:06;;;;;;;7.32;3.90;;;;;;;20.26;37.33;94036.38;5048888;28;20279;-57
2023/05/31 11:29:59;;;;;;;8.48;3.83;;;;;;;21.25;36.26;94012.84;5049335;28;20039;-57
2023/05/31 11:32:35;;;;;;;7.35;3.60;;;;;;;22.10;36.30;94006.47;5046549;28;20045;-58
2023/05/31 11:35:04;;;;;;;6.93;3.72;;;;;;;22.12;35.38;94014.38;5049751;28;20067;-58
2023/05/31 11:37:32;;;;;;;5.53;3.70;;;;;;;22.37;33.24;94015.69;5048841;28;20091;-61
2023/05/31 11:40:01;;;;;;;8.52;4.05;;;;;;;20.45;36.80;94015.47;5049693;28;20087;-60
2023/05/31 11:42:31;;;;;;;7.95;4.00;;;;;;;21.42;35.09;94009.56;5048573;28;20051;-60